createdAt,value
2023-03-21T00:00:34.256Z,4.50
2023-03-21T00:03:01.340Z,4.75
2023-03-21T00:05:28.265Z,6.40
2023-03-21T00:07:55.054Z,5.53
2023-03-21T00:10:37.139Z,4.70
2023-03-21T00:13:06.397Z,4.60
2023-03-21T00:15:42.519Z,5.15
2023-03-21T00:18:15.852Z,4.72
2023-03-21T00:20:47.309Z,5.10
2023-03-21T00:23:13.988Z,4.73
2023-03-21T00:25:40.704Z,4.47
2023-03-21T00:28:08.749Z,5.35
2023-03-21T00:30:35.661Z,5.15
2023-03-21T00:33:08.938Z,5.90
2023-03-21T00:36:06.014Z,5.07
2023-03-21T00:38:34.219Z,5.70
2023-03-21T00:41:10.970Z,5.15
2023-03-21T00:43:41.713Z,5.28
2023-03-21T00:46:08.448Z,4.80
2023-03-21T00:48:35.796Z,5.18
2023-03-21T00:51:02.489Z,4.85
2023-03-21T00:53:30.166Z,5.13
2023-03-21T00:55:58.580Z,4.72
2023-03-21T00:58:26.185Z,4.78
2023-03-21T01:00:52.787Z,5.23
2023-03-21T01:03:25.025Z,5.03
2023-03-21T01:06:07.809Z,4.78
2023-03-21T01:08:53.492Z,5.15
2023-03-21T01:11:23.657Z,5.00
2023-03-21T01:14:10.738Z,4.75
2023-03-21T01:16:38.239Z,5.75
2023-03-21T01:19:09.302Z,4.88
2023-03-21T01:21:42.199Z,4.35
2023-03-21T01:24:09.874Z,4.70
2023-03-21T01:26:37.591Z,4.03
2023-03-21T01:29:05.461Z,4.10
2023-03-21T01:31:32.279Z,3.95
2023-03-21T01:33:59.042Z,4.05
2023-03-21T01:36:26.845Z,6.88
2023-03-21T01:38:59.588Z,9.77
2023-03-21T01:41:47.490Z,10.43
2023-03-21T01:44:19.170Z,7.97
2023-03-21T01:47:00.422Z,7.28
2023-03-21T01:49:46.895Z,7.50
2023-03-21T01:52:37.582Z,9.68
2023-03-21T01:55:13.946Z,5.72
2023-03-21T01:58:04.772Z,5.90
2023-03-21T02:00:39.041Z,4.93
2023-03-21T02:03:33.264Z,5.05
2023-03-21T02:06:31.896Z,4.70
2023-03-21T02:09:09.987Z,5.10
2023-03-21T02:11:38.409Z,5.13
2023-03-21T02:14:07.652Z,4.50
2023-03-21T02:16:55.111Z,4.38
2023-03-21T02:19:52.904Z,4.97
2023-03-21T02:22:25.695Z,5.20
2023-03-21T02:24:59.692Z,4.80
2023-03-21T02:27:34.767Z,5.13
2023-03-21T02:30:29.496Z,6.15
2023-03-21T02:33:47.033Z,5.22
2023-03-21T02:36:22.272Z,5.00
2023-03-21T02:39:13.026Z,5.55
2023-03-21T02:41:54.863Z,6.10
2023-03-21T02:44:49.714Z,5.90
2023-03-21T02:47:32.054Z,5.77
2023-03-21T02:50:24.767Z,5.20
2023-03-21T02:52:53.625Z,5.25
2023-03-21T02:55:24.565Z,4.82
2023-03-21T02:58:11.824Z,4.90
2023-03-21T03:00:42.800Z,5.18
2023-03-21T03:03:15.881Z,4.85
2023-03-21T03:05:49.473Z,4.97
2023-03-21T03:08:23.995Z,5.03
2023-03-21T03:10:56.284Z,5.15
2023-03-21T03:13:35.056Z,4.63
2023-03-21T03:16:20.253Z,4.50
2023-03-21T03:18:54.441Z,4.60
2023-03-21T03:21:23.934Z,4.47
2023-03-21T03:23:54.355Z,4.60
2023-03-21T03:26:23.969Z,5.13
2023-03-21T03:28:54.700Z,7.50
2023-03-21T03:31:29.895Z,8.45
2023-03-21T03:34:04.579Z,27.65
2023-03-21T03:36:38.865Z,32.00
2023-03-21T03:39:13.224Z,26.70
2023-03-21T03:42:27.078Z,28.02
2023-03-21T03:44:49.559Z,22.13
2023-03-21T03:47:32.790Z,17.30
2023-03-21T03:50:23.764Z,14.93
2023-03-21T03:52:57.744Z,14.03
2023-03-21T03:55:34.557Z,15.80
2023-03-21T03:58:19.867Z,12.27
2023-03-21T04:00:48.908Z,11.38
2023-03-21T04:03:16.025Z,8.98
2023-03-21T04:05:46.278Z,9.23
2023-03-21T04:08:15.352Z,10.10
2023-03-21T04:10:44.660Z,9.05
2023-03-21T04:13:11.529Z,10.32
2023-03-21T04:16:04.803Z,11.43
2023-03-21T04:18:32.152Z,14.90
2023-03-21T04:20:58.842Z,13.15
2023-03-21T04:23:29.260Z,12.73
2023-03-21T04:25:57.331Z,9.25
2023-03-21T04:28:37.577Z,9.90
2023-03-21T04:31:25.221Z,7.53
2023-03-21T04:33:59.517Z,8.02
2023-03-21T04:36:30.700Z,8.32
2023-03-21T04:39:03.597Z,9.68
2023-03-21T04:41:31.522Z,12.00
2023-03-21T04:43:58.155Z,8.57
2023-03-21T04:46:24.944Z,9.60
2023-03-21T04:48:51.570Z,10.05
2023-03-21T04:51:18.146Z,5.57
2023-03-21T04:53:45.936Z,4.65
2023-03-21T04:56:13.112Z,3.80
2023-03-21T04:58:40.692Z,4.10
2023-03-21T05:01:08.219Z,4.72
2023-03-21T05:03:39.768Z,4.45
2023-03-21T05:06:08.547Z,4.72
2023-03-21T05:08:36.075Z,4.47
2023-03-21T05:11:03.342Z,4.35
2023-03-21T05:13:29.980Z,3.97
2023-03-21T05:15:56.672Z,3.92
2023-03-21T05:18:25.149Z,5.00
2023-03-21T05:21:10.439Z,8.07
2023-03-21T05:23:38.359Z,8.98
2023-03-21T05:26:09.449Z,9.38
2023-03-21T05:28:51.450Z,10.25
2023-03-21T05:31:18.817Z,10.38
2023-03-21T05:33:48.197Z,11.20
2023-03-21T05:36:18.074Z,10.05
2023-03-21T05:38:47.672Z,9.35
2023-03-21T05:41:19.112Z,8.80
2023-03-21T05:43:46.375Z,8.20
2023-03-21T05:46:15.745Z,7.43
2023-03-21T05:48:42.398Z,8.68
2023-03-21T05:51:15.053Z,15.10
2023-03-21T05:53:41.678Z,29.85
2023-03-21T05:56:09.135Z,21.20
2023-03-21T05:58:42.220Z,20.60
2023-03-21T06:01:09.144Z,13.65
2023-03-21T06:03:38.894Z,7.93
2023-03-21T06:06:15.650Z,6.00
2023-03-21T06:08:52.755Z,5.32
2023-03-21T06:11:25.866Z,4.90
2023-03-21T06:14:00.469Z,4.97
2023-03-21T06:16:28.765Z,4.72
2023-03-21T06:18:56.188Z,4.20
2023-03-21T06:21:36.477Z,3.70
2023-03-21T06:24:03.774Z,3.50
2023-03-21T06:26:30.693Z,3.33
2023-03-21T06:28:57.463Z,3.78
2023-03-21T06:31:25.235Z,3.60
2023-03-21T06:33:55.082Z,3.22
2023-03-21T06:36:21.797Z,4.00
2023-03-21T06:38:49.208Z,3.97
2023-03-21T06:41:16.954Z,3.75
2023-03-21T06:43:51.184Z,4.20
2023-03-21T06:46:18.470Z,3.58
2023-03-21T06:48:47.259Z,3.90
2023-03-21T06:51:16.090Z,3.50
2023-03-21T06:53:55.511Z,3.30
2023-03-21T06:56:36.387Z,3.47
2023-03-21T06:59:04.019Z,3.33
2023-03-21T07:01:57.169Z,3.47
2023-03-21T07:04:24.868Z,3.58
2023-03-21T07:06:52.069Z,3.28
2023-03-21T07:09:24.561Z,3.53
2023-03-21T07:11:53.874Z,3.08
2023-03-21T07:14:23.913Z,3.70
2023-03-21T07:16:50.759Z,3.65
2023-03-21T07:19:17.445Z,3.70
2023-03-21T07:21:44.196Z,4.22
2023-03-21T07:24:10.821Z,3.25
2023-03-21T07:26:37.617Z,3.83
2023-03-21T07:29:05.198Z,3.72
2023-03-21T07:31:31.948Z,3.10
2023-03-21T07:33:58.653Z,3.00
2023-03-21T07:36:26.418Z,3.60
2023-03-21T07:38:53.076Z,3.80
2023-03-21T07:41:23.392Z,3.70
2023-03-21T07:43:50.842Z,3.45
2023-03-21T07:46:18.690Z,4.00
2023-03-21T07:48:47.503Z,3.42
2023-03-21T07:51:14.147Z,3.87
2023-03-21T07:53:41.952Z,3.55
2023-03-21T07:56:08.972Z,3.30
2023-03-21T07:58:35.652Z,3.40
2023-03-21T08:01:02.333Z,3.88
2023-03-21T08:03:29.839Z,3.80
2023-03-21T08:05:56.486Z,3.50
2023-03-21T08:08:23.059Z,4.20
2023-03-21T08:10:49.843Z,3.83
2023-03-21T08:13:16.479Z,4.00
2023-03-21T08:15:43.297Z,4.20
2023-03-21T08:18:10.673Z,4.13
2023-03-21T08:20:37.492Z,4.43
2023-03-21T08:23:04.560Z,4.47
2023-03-21T08:25:31.389Z,4.50
2023-03-21T08:27:58.046Z,4.30
2023-03-21T08:30:28.089Z,4.10
2023-03-21T08:33:01.967Z,4.10
2023-03-21T08:35:29.574Z,4.00
2023-03-21T08:37:56.191Z,4.25
2023-03-21T08:40:22.896Z,4.10
2023-03-21T08:42:49.655Z,4.55
2023-03-21T08:45:18.161Z,4.18
2023-03-21T08:47:47.104Z,4.38
2023-03-21T08:50:18.262Z,4.00
2023-03-21T08:52:45.217Z,4.30
2023-03-21T08:55:13.225Z,4.32
2023-03-21T08:57:40.148Z,4.00
2023-03-21T09:00:13.816Z,3.75
2023-03-21T09:02:41.752Z,3.83
2023-03-21T09:05:10.201Z,3.63
2023-03-21T09:07:37.532Z,3.65
2023-03-21T09:10:20.134Z,3.53
2023-03-21T09:12:50.835Z,3.50
2023-03-21T09:15:20.100Z,3.65
2023-03-21T09:17:50.255Z,3.37
2023-03-21T09:20:20.913Z,4.00
2023-03-21T09:22:49.607Z,3.95
2023-03-21T09:25:17.090Z,3.58
2023-03-21T09:27:45.784Z,4.20
2023-03-21T09:30:19.041Z,3.63
2023-03-21T09:32:50.361Z,4.05
2023-03-21T09:35:18.830Z,3.83
2023-03-21T09:37:47.273Z,4.20
2023-03-21T09:40:44.346Z,3.65
2023-03-21T09:43:17.106Z,4.60
2023-03-21T09:46:00.836Z,4.53
2023-03-21T09:48:57.745Z,4.63
2023-03-21T09:51:31.106Z,4.40
2023-03-21T09:54:03.708Z,3.90
2023-03-21T09:56:30.439Z,4.30
2023-03-21T09:58:59.272Z,4.25
2023-03-21T10:01:29.807Z,4.60
2023-03-21T10:04:00.593Z,4.03
2023-03-21T10:06:30.367Z,4.20
2023-03-21T10:09:13.307Z,4.30
2023-03-21T10:11:53.197Z,3.70
2023-03-21T10:14:27.671Z,3.50
2023-03-21T10:17:17.176Z,3.50
2023-03-21T10:19:46.498Z,3.83
2023-03-21T10:22:13.147Z,3.90
2023-03-21T10:24:39.929Z,4.13
2023-03-21T10:27:07.035Z,4.18
2023-03-21T10:29:43.540Z,4.22
2023-03-21T10:32:13.022Z,3.78
2023-03-21T10:34:47.804Z,3.47
2023-03-21T10:37:14.640Z,3.60
2023-03-21T10:39:43.976Z,3.35
2023-03-21T10:42:26.002Z,3.53
2023-03-21T10:44:56.083Z,4.40
2023-03-21T10:47:27.944Z,4.40
2023-03-21T10:50:11.124Z,4.85
2023-03-21T10:52:45.500Z,3.70
2023-03-21T10:55:33.302Z,4.28
2023-03-21T10:58:08.254Z,4.45
2023-03-21T11:00:39.955Z,4.70
2023-03-21T11:03:08.245Z,4.60
2023-03-21T11:05:38.820Z,4.10
2023-03-21T11:08:19.702Z,4.45
2023-03-21T11:10:52.346Z,4.70
2023-03-21T11:13:43.552Z,4.27
2023-03-21T11:16:18.231Z,3.90
2023-03-21T11:18:50.842Z,3.63
2023-03-21T11:21:18.083Z,3.80
2023-03-21T11:23:48.075Z,3.80
2023-03-21T11:26:26.819Z,3.57
2023-03-21T11:28:54.520Z,3.28
2023-03-21T11:31:24.687Z,3.67
2023-03-21T11:33:56.296Z,4.00
2023-03-21T11:36:22.899Z,3.63
2023-03-21T11:38:57.227Z,3.47
2023-03-21T11:41:32.168Z,4.20
2023-03-21T11:44:00.626Z,3.92
2023-03-21T11:46:32.477Z,3.50
2023-03-21T11:49:00.590Z,3.90
2023-03-21T11:51:47.631Z,3.77
2023-03-21T11:54:20.572Z,4.25
2023-03-21T11:56:50.905Z,4.68
2023-03-21T12:00:20.809Z,4.20
2023-03-21T12:03:05.456Z,4.45
2023-03-21T12:05:34.777Z,4.07
2023-03-21T12:08:12.972Z,4.32
2023-03-21T12:11:03.855Z,3.92
2023-03-21T12:13:43.762Z,3.67
2023-03-21T12:16:22.452Z,4.47
2023-03-21T12:18:57.831Z,3.80
2023-03-21T12:21:40.907Z,4.47
2023-03-21T12:24:33.199Z,4.50
2023-03-21T12:27:16.120Z,4.28
2023-03-21T12:29:55.322Z,4.50
2023-03-21T12:32:42.277Z,4.00
2023-03-21T12:35:25.561Z,4.10
2023-03-21T12:38:03.989Z,4.00
2023-03-21T12:41:05.881Z,4.45
2023-03-21T12:43:38.031Z,4.97
2023-03-21T12:46:14.920Z,4.50
2023-03-21T12:48:47.747Z,4.68
2023-03-21T12:51:18.228Z,4.28
2023-03-21T12:53:51.063Z,4.38
2023-03-21T12:56:23.754Z,4.55
2023-03-21T12:58:59.800Z,4.67
2023-03-21T13:01:28.796Z,4.18
2023-03-21T13:04:21.189Z,4.75
2023-03-21T13:06:52.420Z,4.20
2023-03-21T13:09:36.740Z,3.70
2023-03-21T13:12:20.260Z,4.30
2023-03-21T13:15:23.743Z,4.00
2023-03-21T13:18:04.485Z,4.55
2023-03-21T13:20:49.385Z,3.40
2023-03-21T13:23:18.599Z,4.05
2023-03-21T13:25:48.677Z,4.60
2023-03-21T13:28:27.465Z,4.63
2023-03-21T13:31:14.353Z,4.63
2023-03-21T13:33:44.982Z,5.20
2023-03-21T13:36:18.583Z,5.18
2023-03-21T13:38:50.729Z,5.47
2023-03-21T13:41:22.147Z,5.20
2023-03-21T13:43:53.656Z,5.30
2023-03-21T13:46:26.240Z,4.38
2023-03-21T13:48:58.852Z,5.28
2023-03-21T13:51:29.195Z,5.90
2023-03-21T13:54:07.917Z,5.28
2023-03-21T13:56:46.769Z,5.07
2023-03-21T13:59:18.626Z,5.55
2023-03-21T14:02:00.177Z,5.10
2023-03-21T14:04:42.059Z,4.60
2023-03-21T14:07:20.107Z,4.90
2023-03-21T14:09:50.594Z,4.53
2023-03-21T14:12:22.597Z,4.63
2023-03-21T14:15:15.740Z,4.97
2023-03-21T14:17:56.634Z,5.20
2023-03-21T14:20:32.477Z,5.00
2023-03-21T14:22:59.188Z,4.47
2023-03-21T14:25:37.159Z,5.15
2023-03-21T14:28:15.487Z,4.97
2023-03-21T14:30:43.197Z,4.80
2023-03-21T14:33:18.631Z,4.38
2023-03-21T14:35:47.040Z,4.50
2023-03-21T14:38:41.614Z,4.85
2023-03-21T14:41:29.119Z,4.43
2023-03-21T14:44:02.469Z,4.67
2023-03-21T14:46:29.178Z,4.95
2023-03-21T14:49:10.615Z,5.10
2023-03-21T14:51:37.486Z,4.40
2023-03-21T14:54:04.206Z,4.82
2023-03-21T14:56:30.943Z,4.93
2023-03-21T14:58:58.095Z,4.70
2023-03-21T15:01:32.139Z,5.30
2023-03-21T15:04:01.027Z,5.28
2023-03-21T15:06:27.698Z,5.10
2023-03-21T15:08:59.795Z,5.30
2023-03-21T15:11:38.796Z,4.70
2023-03-21T15:14:08.283Z,6.15
2023-03-21T15:16:36.413Z,5.15
2023-03-21T15:19:05.154Z,5.50
2023-03-21T15:21:34.993Z,5.53
2023-03-21T15:24:33.618Z,5.32
2023-03-21T15:27:06.879Z,5.40
2023-03-21T15:29:36.747Z,4.95
2023-03-21T15:32:06.592Z,5.22
2023-03-21T15:34:33.513Z,5.53
2023-03-21T15:37:13.783Z,5.82
2023-03-21T15:39:40.591Z,5.40
2023-03-21T15:42:23.266Z,5.22
2023-03-21T15:44:53.193Z,5.82
2023-03-21T15:47:47.747Z,5.27
2023-03-21T15:50:22.670Z,5.25
2023-03-21T15:52:51.080Z,5.32
2023-03-21T15:55:26.365Z,4.78
2023-03-21T15:57:59.923Z,5.38
2023-03-21T16:00:44.361Z,5.97
2023-03-21T16:03:21.179Z,5.90
2023-03-21T16:06:04.444Z,5.75
2023-03-21T16:08:36.812Z,4.80
2023-03-21T16:11:29.309Z,5.50
2023-03-21T16:13:56.695Z,5.47
2023-03-21T16:16:28.834Z,5.70
2023-03-21T16:18:56.458Z,5.82
2023-03-21T16:21:26.532Z,5.30
2023-03-21T16:23:53.284Z,5.88
2023-03-21T16:26:27.533Z,5.83
2023-03-21T16:28:54.323Z,6.00
2023-03-21T16:31:23.634Z,6.20
2023-03-21T16:33:51.234Z,5.60
2023-03-21T16:36:24.383Z,5.57
2023-03-21T16:38:52.941Z,5.43
2023-03-21T16:41:21.462Z,5.25
2023-03-21T16:43:47.989Z,5.03
2023-03-21T16:46:23.348Z,5.15
2023-03-21T16:48:53.657Z,5.72
2023-03-21T16:51:29.285Z,5.07
2023-03-21T16:53:57.705Z,4.60
2023-03-21T16:56:27.480Z,5.00
2023-03-21T16:58:54.955Z,4.65
2023-03-21T17:01:26.170Z,5.68
2023-03-21T17:03:53.371Z,5.03
2023-03-21T17:06:23.087Z,5.40
2023-03-21T17:08:50.851Z,6.43
2023-03-21T17:11:20.734Z,6.40
2023-03-21T17:13:48.831Z,6.63
2023-03-21T17:16:18.589Z,5.30
2023-03-21T17:18:45.235Z,5.63
2023-03-21T17:21:14.078Z,5.32
2023-03-21T17:23:41.252Z,5.60
2023-03-21T17:26:10.656Z,5.95
2023-03-21T17:28:38.280Z,5.90
2023-03-21T17:31:16.937Z,5.82
2023-03-21T17:33:44.222Z,6.72
2023-03-21T17:36:24.897Z,5.60
2023-03-21T17:38:52.898Z,4.88
2023-03-21T17:41:20.918Z,5.33
2023-03-21T17:43:47.540Z,4.95
2023-03-21T17:46:16.477Z,5.97
2023-03-21T17:48:44.396Z,5.68
2023-03-21T17:51:16.383Z,5.78
2023-03-21T17:53:44.335Z,7.00
2023-03-21T17:56:15.856Z,8.80
2023-03-21T17:58:42.530Z,12.80
2023-03-21T18:01:09.186Z,20.48
2023-03-21T18:03:35.809Z,16.98
2023-03-21T18:06:03.774Z,13.00
2023-03-21T18:08:30.322Z,11.18
2023-03-21T18:10:56.894Z,9.00
2023-03-21T18:13:23.850Z,9.35
2023-03-21T18:15:50.726Z,9.30
2023-03-21T18:18:17.775Z,9.77
2023-03-21T18:20:52.233Z,10.02
2023-03-21T18:23:19.912Z,14.75
2023-03-21T18:25:47.023Z,19.73
2023-03-21T18:28:13.938Z,20.63
2023-03-21T18:31:05.222Z,17.33
2023-03-21T18:33:28.464Z,12.48
2023-03-21T18:35:59.625Z,13.75
2023-03-21T18:38:27.758Z,16.38
2023-03-21T18:40:55.613Z,24.75
2023-03-21T18:46:09.076Z,26.58
2023-03-21T18:48:36.522Z,25.48
2023-03-21T18:51:03.953Z,21.85
2023-03-21T18:53:30.666Z,20.90
2023-03-21T18:55:57.769Z,15.07
2023-03-21T18:58:25.295Z,12.23
2023-03-21T19:00:53.544Z,11.68
2023-03-21T19:03:34.156Z,11.70
2023-03-21T19:06:04.029Z,10.48
2023-03-21T19:08:31.143Z,10.83
2023-03-21T19:11:00.177Z,12.18
2023-03-21T19:13:28.287Z,14.25
2023-03-21T19:15:56.211Z,15.40
2023-03-21T19:18:53.474Z,14.13
2023-03-21T19:21:10.016Z,14.23
2023-03-21T19:24:11.747Z,17.33
2023-03-21T19:26:24.559Z,17.15
2023-03-21T19:28:52.765Z,14.93
2023-03-21T19:31:20.974Z,14.60
2023-03-21T19:33:48.358Z,13.37
2023-03-21T19:36:21.931Z,12.85
2023-03-21T19:38:49.445Z,13.63
2023-03-21T19:41:16.470Z,14.00
2023-03-21T19:43:53.253Z,14.80
2023-03-21T19:46:24.653Z,16.33
2023-03-21T19:48:51.703Z,15.43
2023-03-21T19:51:28.366Z,14.95
2023-03-21T19:53:55.767Z,14.15
2023-03-21T19:56:26.776Z,14.30
2023-03-21T19:58:57.194Z,16.47
2023-03-21T20:01:24.761Z,18.42
2023-03-21T20:03:52.219Z,30.23
2023-03-21T20:06:19.206Z,28.58
2023-03-21T20:11:33.236Z,38.43
2023-03-21T20:14:01.922Z,29.98
2023-03-21T20:16:34.780Z,24.08
2023-03-21T20:19:04.615Z,22.90
2023-03-21T20:21:41.095Z,23.30
2023-03-21T20:24:11.419Z,18.07
2023-03-21T20:26:38.383Z,18.15
2023-03-21T20:29:41.072Z,16.80
2023-03-21T20:31:53.160Z,16.70
2023-03-21T20:34:21.150Z,14.30
2023-03-21T20:36:48.252Z,13.63
2023-03-21T20:39:15.394Z,13.70
2023-03-21T20:41:42.127Z,16.38
2023-03-21T20:46:56.662Z,14.80
2023-03-21T20:49:24.322Z,11.80
2023-03-21T20:54:38.106Z,10.10
2023-03-21T20:57:05.319Z,10.45
2023-03-21T20:59:32.624Z,9.10
2023-03-21T21:01:59.972Z,8.10
2023-03-21T21:07:17.499Z,7.60
2023-03-21T21:09:45.071Z,7.47
2023-03-21T21:12:12.953Z,7.53
2023-03-21T21:14:40.580Z,8.93
2023-03-21T21:17:26.738Z,9.88
2023-03-21T21:19:54.395Z,9.35
2023-03-21T21:22:21.017Z,9.25
2023-03-21T21:24:47.888Z,8.00
2023-03-21T21:27:14.585Z,7.10
2023-03-21T21:29:43.254Z,7.40
2023-03-21T21:32:11.167Z,6.85
2023-03-21T21:34:37.999Z,7.28
2023-03-21T21:37:05.099Z,7.13
2023-03-21T21:39:35.107Z,6.97
2023-03-21T21:42:02.265Z,7.25
2023-03-21T21:44:29.096Z,7.28
2023-03-21T21:46:57.425Z,6.80
2023-03-21T21:49:24.386Z,7.00
2023-03-21T21:51:50.994Z,6.30
2023-03-21T21:54:18.204Z,6.50
2023-03-21T21:56:48.510Z,6.53
2023-03-21T21:59:21.933Z,6.55
2023-03-21T22:01:51.148Z,7.20
2023-03-21T22:04:18.727Z,6.17
2023-03-21T22:06:47.450Z,7.10
2023-03-21T22:09:15.806Z,6.43
2023-03-21T22:11:42.740Z,6.95
2023-03-21T22:14:09.389Z,6.65
2023-03-21T22:16:36.316Z,6.87
2023-03-21T22:19:03.111Z,6.43
2023-03-21T22:21:29.701Z,6.35
2023-03-21T22:23:56.337Z,6.50
2023-03-21T22:26:23.315Z,6.60
2023-03-21T22:28:49.891Z,6.33
2023-03-21T22:31:17.222Z,6.50
2023-03-21T22:33:45.029Z,6.50
2023-03-21T22:36:11.973Z,6.43
2023-03-21T22:38:38.753Z,6.70
2023-03-21T22:41:06.727Z,6.70
2023-03-21T22:43:35.240Z,6.70
2023-03-21T22:46:03.349Z,6.88
2023-03-21T22:48:30.858Z,6.55
2023-03-21T22:50:59.269Z,6.63
2023-03-21T22:53:25.914Z,6.60
2023-03-21T22:55:52.586Z,6.22
2023-03-21T22:58:19.200Z,5.97
2023-03-21T23:00:46.029Z,6.18
2023-03-21T23:03:14.524Z,6.10
2023-03-21T23:05:41.590Z,6.17
2023-03-21T23:08:08.674Z,6.18
2023-03-21T23:10:38.185Z,6.13
2023-03-21T23:13:05.069Z,5.93
2023-03-21T23:15:31.767Z,6.40
2023-03-21T23:17:58.316Z,6.30
2023-03-21T23:20:24.889Z,6.68
2023-03-21T23:22:51.490Z,6.78
2023-03-21T23:25:20.442Z,6.35
2023-03-21T23:27:47.541Z,6.80
2023-03-21T23:30:14.427Z,6.73
2023-03-21T23:32:41.326Z,6.55
2023-03-21T23:35:09.213Z,7.00
2023-03-21T23:37:35.828Z,7.25
2023-03-21T23:40:02.608Z,7.45
2023-03-21T23:42:30.486Z,7.13
2023-03-21T23:44:57.262Z,7.13
2023-03-21T23:47:23.923Z,8.13
2023-03-21T23:49:52.707Z,8.65
2023-03-21T23:52:19.382Z,8.75
2023-03-21T23:54:46.161Z,8.87
2023-03-21T23:57:12.774Z,9.02
2023-03-21T23:59:39.382Z,9.07
